Time;durP1;ratioP1;P1;durP2;ratioP2;P2;SDS_P1;SDS_P2;PMS_P1;PMS_P2;Temp;Humidity;BMP_temperature;BMP_pressure;BME280_temperature;BME280_humidity;BME280_pressure;Samples;Min_cycle;Max_cycle;Signal;HPM_P1;HPM_P2
2023/05/13 00:01:12;;;;;;;0.43;0.43;;;12.30;99.90;;;;;;5092043;28;20048;-66
2023/05/13 00:03:37;;;;;;;0.95;0.95;;;12.30;99.90;;;;;;5091842;28;20124;-67
2023/05/13 00:06:03;;;;;;;;;;;12.10;99.90;;;;;;5092229;28;20052;-68
2023/05/13 00:08:29;;;;;;;0.50;0.50;;;12.40;99.90;;;;;;5091747;28;19924;-67
2023/05/13 00:10:54;;;;;;;;;;;12.20;99.90;;;;;;5092497;28;20125;-68
2023/05/13 00:13:20;;;;;;;0.40;0.40;;;12.30;99.90;;;;;;5091713;28;19977;-66
2023/05/13 00:15:46;;;;;;;0.50;0.50;;;12.70;99.90;;;;;;5092066;28;20040;-66
2023/05/13 00:18:11;;;;;;;2.28;0.60;;;12.60;99.90;;;;;;5090830;28;20131;-67
2023/05/13 00:20:37;;;;;;;1.27;1.25;;;12.00;99.90;;;;;;5091907;28;20052;-67
2023/05/13 00:23:03;;;;;;;0.45;0.45;;;12.20;99.90;;;;;;5091725;28;20040;-66
2023/05/13 00:25:28;;;;;;;0.85;0.77;;;12.30;99.90;;;;;;5095126;28;20562;-66
2023/05/13 00:27:54;;;;;;;;;;;12.30;99.90;;;;;;5094791;28;20104;-69
2023/05/13 00:30:19;;;;;;;0.40;0.40;;;12.50;99.90;;;;;;5114164;28;20383;-67
2023/05/13 00:32:45;;;;;;;1.92;1.75;;;12.20;99.90;;;;;;5114361;28;20071;-68
2023/05/13 00:35:11;;;;;;;;;;;12.50;99.90;;;;;;5116572;28;20040;-67
2023/05/13 00:37:37;;;;;;;1.35;0.75;;;12.00;99.90;;;;;;5115990;27;19931;-68
2023/05/13 00:40:03;;;;;;;;;;;12.50;99.90;;;;;;5116596;28;20047;-66
2023/05/13 00:42:29;;;;;;;1.05;1.02;;;12.40;99.90;;;;;;5116063;28;20367;-67
2023/05/13 00:44:54;;;;;;;0.77;0.77;;;12.00;99.90;;;;;;5116267;28;20489;-67
2023/05/13 00:47:21;;;;;;;2.10;1.30;;;12.30;99.90;;;;;;5115959;28;20073;-67
2023/05/13 00:49:46;;;;;;;0.47;0.47;;;12.10;99.90;;;;;;5115844;28;20047;-66
2023/05/13 00:52:12;;;;;;;0.60;0.60;;;11.90;99.90;;;;;;5115390;28;20081;-67
2023/05/13 00:54:38;;;;;;;0.70;0.70;;;12.40;99.90;;;;;;5114931;28;20081;-67
2023/05/13 00:57:04;;;;;;;0.47;0.43;;;12.10;99.90;;;;;;5115798;28;20044;-66
2023/05/13 00:59:30;;;;;;;;;;;12.00;99.90;;;;;;5116228;28;20063;-68
2023/05/13 01:02:04;;;;;;;0.52;0.50;;;12.40;99.90;;;;;;5115705;28;20379;-67
2023/05/13 01:04:41;;;;;;;0.35;0.32;;;11.70;99.90;;;;;;5115679;28;20054;-67
2023/05/13 01:07:10;;;;;;;0.35;0.35;;;12.10;99.90;;;;;;5115515;27;20134;-67
2023/05/13 01:09:52;;;;;;;0.55;0.55;;;12.20;99.90;;;;;;5115595;28;20047;-66
2023/05/13 01:12:35;;;;;;;0.60;0.60;;;12.00;99.90;;;;;;5115481;28;20043;-67
2023/05/13 01:15:24;;;;;;;0.30;0.30;;;12.30;99.90;;;;;;5115387;28;20101;-67
2023/05/13 01:17:54;;;;;;;0.32;0.32;;;12.00;99.90;;;;;;5114255;28;20046;-66
2023/05/13 01:20:23;;;;;;;0.40;0.40;;;12.00;99.90;;;;;;5114377;28;20390;-67
2023/05/13 01:22:49;;;;;;;0.65;0.60;;;11.90;99.90;;;;;;5115251;28;20040;-66
2023/05/13 01:25:15;;;;;;;;;;;11.90;99.90;;;;;;5115578;28;20089;-67
2023/05/13 01:27:41;;;;;;;0.77;0.77;;;12.10;99.90;;;;;;5115030;28;19924;-66
2023/05/13 01:30:09;;;;;;;0.50;0.50;;;12.00;99.90;;;;;;5114203;28;20079;-66
2023/05/13 01:32:35;;;;;;;0.50;0.50;;;12.10;99.90;;;;;;5115109;27;20391;-67
2023/05/13 01:35:02;;;;;;;0.50;0.43;;;11.80;99.90;;;;;;5115079;28;20404;-66
2023/05/13 01:37:29;;;;;;;0.57;0.57;;;12.10;99.90;;;;;;5114173;28;20051;-67
2023/05/13 01:39:55;;;;;;;0.95;0.52;;;11.90;99.90;;;;;;5115114;28;20078;-68
2023/05/13 01:42:22;;;;;;;0.40;0.40;;;11.90;99.90;;;;;;5114956;28;20094;-68
2023/05/13 01:44:50;;;;;;;2.17;0.90;;;11.70;99.90;;;;;;5115017;28;20380;-67
2023/05/13 01:47:16;;;;;;;0.57;0.57;;;11.90;99.90;;;;;;5113876;28;20047;-66
2023/05/13 01:49:42;;;;;;;0.30;0.30;;;12.00;99.90;;;;;;5114878;28;20048;-66
2023/05/13 01:52:08;;;;;;;0.55;0.55;;;12.00;99.90;;;;;;5114692;28;20116;-66
2023/05/13 01:54:33;;;;;;;0.40;0.40;;;11.80;99.90;;;;;;5113308;28;20047;-67
2023/05/13 01:56:59;;;;;;;0.28;0.28;;;11.80;99.90;;;;;;5114558;27;20568;-67
2023/05/13 01:59:25;;;;;;;1.42;1.33;;;11.50;99.90;;;;;;5114691;28;20563;-66
2023/05/13 02:01:50;;;;;;;0.40;0.40;;;11.90;99.90;;;;;;5114617;28;20402;-66
2023/05/13 02:04:16;;;;;;;0.57;0.57;;;11.70;99.90;;;;;;5113490;28;20047;-66
2023/05/13 02:06:42;;;;;;;1.02;0.60;;;11.80;99.90;;;;;;5114483;28;20180;-66
2023/05/13 02:09:08;;;;;;;0.40;0.30;;;11.30;99.90;;;;;;5114325;28;20051;-66
2023/05/13 02:11:34;;;;;;;0.90;0.90;;;11.80;99.90;;;;;;5114155;28;20093;-66
2023/05/13 02:14:00;;;;;;;0.50;0.50;;;11.90;99.90;;;;;;5114427;28;20058;-66
2023/05/13 02:16:26;;;;;;;0.47;0.47;;;11.60;99.90;;;;;;5114367;28;20039;-66
2023/05/13 02:18:51;;;;;;;0.98;0.88;;;11.80;99.90;;;;;;5114214;28;20124;-66
2023/05/13 02:21:17;;;;;;;0.60;0.60;;;11.50;99.90;;;;;;5114165;28;20083;-66
2023/05/13 02:23:43;;;;;;;0.57;0.57;;;11.50;99.90;;;;;;5114024;28;20191;-66
2023/05/13 02:26:08;;;;;;;0.65;0.65;;;11.30;99.90;;;;;;5113923;28;20483;-65
2023/05/13 02:28:34;;;;;;;0.38;0.38;;;11.80;99.90;;;;;;5114155;28;20048;-66
2023/05/13 02:31:00;;;;;;;0.43;0.40;;;11.30;99.90;;;;;;5114099;28;20060;-66
2023/05/13 02:33:26;;;;;;;0.95;0.63;;;11.40;99.90;;;;;;5113893;28;20051;-66
2023/05/13 02:35:51;;;;;;;0.30;0.30;;;11.70;99.90;;;;;;5113871;28;20040;-66
2023/05/13 02:38:17;;;;;;;4.97;1.27;;;11.60;99.90;;;;;;5113842;28;20075;-66
2023/05/13 02:40:43;;;;;;;0.45;0.45;;;11.70;99.90;;;;;;5113650;28;20776;-67
2023/05/13 02:43:08;;;;;;;0.73;0.73;;;11.60;99.90;;;;;;5113919;28;20043;-66
2023/05/13 02:45:34;;;;;;;0.30;0.30;;;12.00;99.90;;;;;;5113850;28;20391;-65
2023/05/13 02:48:00;;;;;;;0.68;0.68;;;11.40;99.90;;;;;;5095613;28;20112;-66
2023/05/13 02:50:25;;;;;;;0.50;0.50;;;11.60;99.90;;;;;;5113513;28;20051;-65
2023/05/13 02:52:51;;;;;;;0.77;0.77;;;12.20;99.90;;;;;;5111971;28;20125;-65
2023/05/13 02:55:17;;;;;;;1.38;0.88;;;11.50;99.90;;;;;;5113369;27;20058;-65
2023/05/13 02:57:43;;;;;;;0.40;0.40;;;11.80;99.90;;;;;;5113552;28;20064;-65
2023/05/13 03:00:10;;;;;;;0.50;0.50;;;12.00;99.90;;;;;;5113643;28;20415;-66
2023/05/13 03:02:36;;;;;;;0.40;0.40;;;11.30;99.90;;;;;;5113405;28;20082;-65
2023/05/13 03:05:02;;;;;;;0.55;0.55;;;11.60;99.90;;;;;;5113293;28;20055;-65
2023/05/13 03:07:28;;;;;;;;;;;11.80;99.90;;;;;;5113647;28;20051;-65
2023/05/13 03:09:54;;;;;;;0.52;0.52;;;11.50;99.90;;;;;;5113045;28;20483;-66
2023/05/13 03:12:19;;;;;;;0.95;0.63;;;11.50;99.90;;;;;;5112094;28;20043;-66
2023/05/13 03:14:46;;;;;;;2.65;1.75;;;11.60;99.90;;;;;;5113246;28;20052;-66
2023/05/13 03:17:12;;;;;;;0.55;0.55;;;11.50;99.90;;;;;;5113064;28;20135;-65
2023/05/13 03:19:38;;;;;;;0.70;0.70;;;11.50;99.90;;;;;;5113063;27;20126;-65
2023/05/13 03:22:05;;;;;;;0.77;0.77;;;11.60;99.90;;;;;;5112838;28;20567;-65
2023/05/13 03:24:31;;;;;;;0.60;0.60;;;11.50;99.90;;;;;;5112760;28;20043;-65
2023/05/13 03:26:57;;;;;;;2.28;0.90;;;11.60;99.90;;;;;;5113013;28;20048;-65
2023/05/13 03:29:22;;;;;;;;;;;11.70;99.90;;;;;;5113385;28;20043;-66
2023/05/13 03:31:48;;;;;;;0.88;0.88;;;11.40;99.90;;;;;;5112812;28;20591;-65
2023/05/13 03:34:15;;;;;;;0.70;0.70;;;11.50;99.90;;;;;;5113050;28;20495;-66
2023/05/13 03:36:40;;;;;;;;;;;11.70;99.90;;;;;;5113375;28;20055;-66
2023/05/13 03:39:06;;;;;;;1.10;1.00;;;11.50;99.90;;;;;;5112564;28;19920;-66
2023/05/13 03:41:32;;;;;;;0.63;0.63;;;11.10;99.90;;;;;;5112809;28;20048;-65
2023/05/13 03:43:58;;;;;;;0.88;0.88;;;11.30;99.90;;;;;;5112745;28;20051;-65
2023/05/13 03:46:26;;;;;;;0.35;0.35;;;11.30;99.90;;;;;;5112681;28;20067;-65
2023/05/13 03:48:52;;;;;;;1.40;0.95;;;11.10;99.90;;;;;;5112589;28;20047;-67
2023/05/13 03:51:18;;;;;;;5.10;1.42;;;11.20;99.90;;;;;;5112526;28;20051;-66
2023/05/13 03:53:43;;;;;;;0.60;0.60;;;11.50;99.90;;;;;;5112048;28;20050;-65
2023/05/13 03:56:09;;;;;;;0.40;0.40;;;11.50;99.90;;;;;;5111243;28;20066;-65
2023/05/13 03:58:35;;;;;;;0.70;0.70;;;11.70;99.90;;;;;;5111959;28;20097;-64
2023/05/13 04:01:01;;;;;;;;;;;11.20;99.90;;;;;;5112521;28;20399;-65
2023/05/13 04:03:27;;;;;;;1.10;1.10;;;11.60;99.90;;;;;;5110716;28;19919;-65
2023/05/13 04:05:53;;;;;;;0.80;0.80;;;11.60;99.90;;;;;;5111968;28;20049;-65
2023/05/13 04:08:18;;;;;;;1.75;1.02;;;11.00;99.90;;;;;;5111886;28;20139;-65
2023/05/13 04:10:44;;;;;;;0.63;0.63;;;11.70;99.90;;;;;;5112232;28;20040;-64
2023/05/13 04:13:10;;;;;;;0.55;0.55;;;11.60;99.90;;;;;;5111978;28;20150;-64
2023/05/13 04:15:36;;;;;;;0.50;0.50;;;11.50;99.90;;;;;;5111982;28;20048;-64
2023/05/13 04:18:01;;;;;;;0.38;0.38;;;11.60;99.90;;;;;;5111965;28;20399;-64
2023/05/13 04:20:28;;;;;;;1.55;1.05;;;11.80;99.90;;;;;;5111886;28;20131;-64
2023/05/13 04:22:53;;;;;;;;;;;11.90;99.90;;;;;;5112195;28;20048;-64
2023/05/13 04:25:19;;;;;;;0.50;0.50;;;11.50;99.90;;;;;;5111958;28;19951;-64
2023/05/13 04:27:46;;;;;;;9.60;1.10;;;11.60;99.90;;;;;;5111901;28;20047;-64
2023/05/13 04:30:12;;;;;;;4.95;1.80;;;11.70;99.90;;;;;;5112006;28;20432;-64
2023/05/13 04:32:38;;;;;;;;;;;12.00;99.90;;;;;;5112119;28;20414;-64
2023/05/13 04:35:06;;;;;;;3.13;2.08;;;11.60;99.90;;;;;;5111768;28;19930;-64
2023/05/13 04:37:32;;;;;;;0.60;0.60;;;12.10;99.90;;;;;;5111607;28;20040;-65
2023/05/13 04:39:58;;;;;;;0.80;0.80;;;12.10;99.90;;;;;;5111870;28;20401;-64
2023/05/13 04:42:24;;;;;;;0.80;0.80;;;11.60;99.90;;;;;;5112118;28;20165;-65
2023/05/13 04:44:50;;;;;;;0.50;0.50;;;11.70;99.90;;;;;;5112128;28;20055;-66
2023/05/13 04:47:15;;;;;;;0.73;0.73;;;11.70;99.90;;;;;;5112001;28;20130;-65
2023/05/13 04:49:41;;;;;;;1.15;1.00;;;11.60;99.90;;;;;;5110932;28;20083;-64
2023/05/13 04:52:07;;;;;;;1.20;0.55;;;11.70;99.90;;;;;;5111502;28;20150;-65
2023/05/13 04:54:34;;;;;;;0.85;0.73;;;12.10;99.90;;;;;;5112016;28;20406;-65
2023/05/13 04:57:01;;;;;;;0.60;0.60;;;12.10;99.90;;;;;;5110744;28;20138;-65
2023/05/13 04:59:26;;;;;;;0.75;0.63;;;12.50;99.90;;;;;;5111900;28;20047;-65
2023/05/13 05:01:53;;;;;;;0.68;0.68;;;12.50;99.90;;;;;;5111890;28;20043;-64
2023/05/13 05:04:19;;;;;;;0.55;0.55;;;12.40;99.90;;;;;;5111844;28;20208;-66
2023/05/13 05:06:45;;;;;;;0.63;0.50;;;12.50;99.90;;;;;;5111736;28;20083;-65
2023/05/13 05:09:10;;;;;;;0.93;0.88;;;12.00;99.90;;;;;;5111934;28;20079;-66
2023/05/13 05:11:37;;;;;;;0.57;0.57;;;11.80;99.90;;;;;;5112965;28;20048;-64
2023/05/13 05:14:03;;;;;;;1.02;1.02;;;12.70;99.90;;;;;;5115401;28;20135;-65
2023/05/13 05:16:28;;;;;;;0.77;0.77;;;12.30;99.90;;;;;;5115339;28;20134;-65
2023/05/13 05:18:54;;;;;;;1.77;1.38;;;12.70;99.90;;;;;;5115334;28;20044;-65
2023/05/13 05:21:20;;;;;;;1.05;0.70;;;12.60;99.90;;;;;;5115300;28;20047;-66
2023/05/13 05:23:45;;;;;;;0.73;0.73;;;12.50;99.90;;;;;;5115499;27;20081;-66
2023/05/13 05:26:11;;;;;;;0.60;0.60;;;12.60;99.90;;;;;;5115445;28;20536;-68
2023/05/13 05:28:38;;;;;;;0.50;0.50;;;12.90;99.90;;;;;;5115606;27;20126;-65
2023/05/13 05:31:05;;;;;;;0.80;0.80;;;13.00;99.90;;;;;;5115326;28;20482;-66
2023/05/13 05:33:31;;;;;;;1.17;1.08;;;12.50;99.90;;;;;;5115027;28;20146;-66
2023/05/13 05:35:56;;;;;;;;;;;12.70;99.90;;;;;;5115402;28;20441;-66
2023/05/13 05:38:25;;;;;;;0.93;0.88;;;12.80;99.90;;;;;;5115374;28;19927;-66
2023/05/13 05:40:51;;;;;;;0.60;0.60;;;12.60;99.90;;;;;;5115074;28;20083;-70
2023/05/13 05:43:17;;;;;;;0.30;0.30;;;13.00;99.90;;;;;;5114956;28;20161;-65
2023/05/13 05:45:42;;;;;;;0.60;0.60;;;13.00;99.90;;;;;;5114888;28;20040;-67
2023/05/13 05:48:08;;;;;;;0.73;0.73;;;12.80;99.90;;;;;;5114811;28;20044;-67
2023/05/13 05:50:35;;;;;;;11.38;2.75;;;13.40;99.90;;;;;;5114651;28;20499;-68
2023/05/13 05:53:01;;;;;;;0.40;0.40;;;13.20;99.90;;;;;;5114425;28;20066;-69
2023/05/13 05:55:27;;;;;;;0.35;0.35;;;13.10;99.90;;;;;;5114777;27;20419;-67
2023/05/13 05:57:53;;;;;;;0.52;0.52;;;13.20;99.90;;;;;;5114673;28;20130;-65
2023/05/13 06:00:19;;;;;;;1.05;0.70;;;13.50;99.90;;;;;;5114506;28;20043;-65
2023/05/13 06:02:45;;;;;;;0.52;0.52;;;13.40;99.90;;;;;;5114496;28;20060;-65
2023/05/13 06:05:11;;;;;;;2.42;1.05;;;13.30;99.90;;;;;;5114333;28;20118;-65
2023/05/13 06:07:36;;;;;;;0.90;0.90;;;14.70;99.90;;;;;;5114660;28;20452;-66
2023/05/13 06:10:02;;;;;;;;;;;13.80;99.90;;;;;;5114886;28;20043;-66
2023/05/13 06:12:28;;;;;;;0.75;0.75;;;13.70;99.90;;;;;;5113041;28;20005;-68
2023/05/13 06:14:54;;;;;;;0.90;0.52;;;13.90;99.90;;;;;;5086299;27;20518;-64
2023/05/13 06:17:20;;;;;;;0.47;0.47;;;13.70;99.90;;;;;;5093571;28;20079;-67
2023/05/13 06:19:45;;;;;;;0.95;0.95;;;13.90;99.90;;;;;;5093418;28;20083;-66
2023/05/13 06:22:11;;;;;;;0.75;0.57;;;14.00;99.90;;;;;;5092896;28;20052;-68
2023/05/13 06:24:43;;;;;;;;;;;13.70;99.90;;;;;;5093970;28;20062;-66
2023/05/13 06:27:13;;;;;;;2.65;1.00;;;14.00;99.90;;;;;;5093535;28;19993;-66
2023/05/13 06:29:39;;;;;;;3.20;1.33;;;14.10;99.90;;;;;;5092547;28;20187;-67
2023/05/13 06:32:05;;;;;;;0.88;0.88;;;14.20;99.90;;;;;;5093163;28;20054;-65
2023/05/13 06:34:31;;;;;;;0.77;0.70;;;14.40;99.90;;;;;;5093366;28;20098;-65
2023/05/13 06:36:57;;;;;;;2.60;0.98;;;14.30;99.90;;;;;;5091531;28;20068;-65
2023/05/13 06:39:23;;;;;;;0.75;0.75;;;14.60;99.90;;;;;;5093268;28;20098;-65
2023/05/13 06:41:48;;;;;;;;;;;14.40;99.90;;;;;;5093471;28;20044;-69
2023/05/13 06:44:14;;;;;;;1.20;0.90;;;14.30;99.90;;;;;;5092312;28;19920;-69
2023/05/13 06:46:39;;;;;;;0.47;0.47;;;14.70;99.90;;;;;;5093006;28;20051;-66
2023/05/13 06:49:05;;;;;;;;;;;14.70;99.90;;;;;;5093268;28;20499;-66
2023/05/13 06:51:32;;;;;;;0.38;0.38;;;14.90;99.90;;;;;;5092666;28;19923;-69
2023/05/13 06:53:58;;;;;;;0.68;0.68;;;14.50;99.90;;;;;;5092892;28;20062;-67
2023/05/13 06:56:24;;;;;;;0.93;0.93;;;14.90;99.90;;;;;;5092917;28;20040;-67
2023/05/13 06:58:51;;;;;;;1.45;0.80;;;15.10;99.90;;;;;;5092007;28;20044;-66
2023/05/13 07:01:17;;;;;;;1.02;0.90;;;14.60;99.90;;;;;;5088327;28;20079;-67
2023/05/13 07:03:43;;;;;;;0.63;0.63;;;15.10;99.90;;;;;;5091839;28;20068;-65
2023/05/13 07:06:09;;;;;;;0.63;0.63;;;15.00;99.90;;;;;;5091979;28;20176;-68
2023/05/13 07:08:35;;;;;;;0.50;0.50;;;15.10;99.90;;;;;;5092251;28;20040;-66
2023/05/13 07:11:01;;;;;;;0.68;0.68;;;15.40;99.90;;;;;;5092181;28;20047;-67
2023/05/13 07:13:26;;;;;;;;;;;15.40;99.90;;;;;;5091670;28;20073;-66
2023/05/13 07:15:52;;;;;;;0.30;0.30;;;15.30;99.90;;;;;;5092011;28;20384;-68
2023/05/13 07:18:18;;;;;;;;;;;15.40;99.90;;;;;;5090833;28;20168;-70
2023/05/13 07:20:43;;;;;;;0.35;0.35;;;15.50;99.90;;;;;;5080565;28;19920;-67
2023/05/13 07:23:12;;;;;;;;;;;15.50;99.90;;;;;;5073044;28;20045;-69
2023/05/13 07:25:39;;;;;;;0.75;0.75;;;15.50;99.90;;;;;;5086987;28;19920;-69
2023/05/13 07:28:04;;;;;;;1.10;0.90;;;15.80;99.90;;;;;;5090572;28;20048;-67
2023/05/13 07:30:30;;;;;;;0.65;0.65;;;15.50;99.90;;;;;;5091075;28;20044;-64
2023/05/13 07:32:55;;;;;;;;;;;15.80;99.90;;;;;;5091503;28;20142;-67
2023/05/13 07:35:21;;;;;;;0.38;0.38;;;15.90;99.90;;;;;;5089944;28;19920;-75
2023/05/13 07:37:47;;;;;;;;;;;15.90;99.90;;;;;;5091497;28;20493;-72
2023/05/13 07:40:12;;;;;;;0.77;0.52;;;16.10;99.90;;;;;;5089779;28;19924;-69
2023/05/13 07:42:38;;;;;;;;;;;15.80;99.90;;;;;;5090574;28;20047;-70
2023/05/13 07:45:06;;;;;;;2.15;1.67;;;16.00;99.90;;;;;;5090940;28;20367;-74
2023/05/13 07:47:32;;;;;;;0.82;0.82;;;16.20;99.90;;;;;;5090817;28;20088;-69
2023/05/13 07:49:58;;;;;;;;;;;15.90;99.90;;;;;;5089312;28;20137;-67
2023/05/13 07:52:24;;;;;;;0.60;0.60;;;16.20;99.90;;;;;;5091421;28;20046;-66
2023/05/13 07:54:51;;;;;;;1.58;1.48;;;15.80;99.90;;;;;;5084524;28;20044;-67
2023/05/13 07:57:17;;;;;;;;;;;15.90;99.90;;;;;;5107672;28;20112;-68
2023/05/13 07:59:43;;;;;;;3.55;1.67;;;16.30;99.90;;;;;;5112039;28;19924;-66
2023/05/13 08:02:09;;;;;;;1.38;1.05;;;16.60;99.90;;;;;;5112014;28;20590;-67
2023/05/13 08:04:35;;;;;;;1.00;0.88;;;16.30;99.90;;;;;;5111838;28;20074;-67
2023/05/13 08:07:01;;;;;;;;;;;16.70;99.90;;;;;;5112525;28;20465;-67
2023/05/13 08:09:27;;;;;;;2.58;2.35;;;16.60;99.90;;;;;;5112246;28;19920;-67
2023/05/13 08:11:53;;;;;;;;;;;16.70;99.90;;;;;;5111869;28;20441;-67
2023/05/13 08:14:19;;;;;;;0.47;0.47;;;16.50;99.90;;;;;;5111736;28;20415;-66
2023/05/13 08:16:44;;;;;;;;;;;16.50;99.90;;;;;;5111313;28;20069;-68
2023/05/13 08:19:10;;;;;;;0.50;0.50;;;16.60;99.90;;;;;;5111732;28;19924;-66
2023/05/13 08:21:36;;;;;;;0.80;0.68;;;16.40;99.90;;;;;;5112098;28;20054;-66
2023/05/13 08:24:01;;;;;;;;;;;16.50;99.90;;;;;;5112453;28;20046;-67
2023/05/13 08:26:27;;;;;;;1.08;1.02;;;16.80;99.90;;;;;;5111425;28;19919;-65
2023/05/13 08:28:53;;;;;;;;;;;16.70;99.90;;;;;;5111996;28;20048;-67
2023/05/13 08:31:18;;;;;;;0.82;0.82;;;16.80;99.90;;;;;;5111769;28;19976;-66
2023/05/13 08:33:46;;;;;;;;;;;17.00;99.90;;;;;;5111997;28;20364;-67
2023/05/13 08:36:13;;;;;;;1.10;1.00;;;17.10;99.90;;;;;;5111917;28;19923;-66
2023/05/13 08:38:39;;;;;;;0.65;0.65;;;17.30;99.90;;;;;;5111941;28;20113;-68
2023/05/13 08:41:05;;;;;;;;;;;17.30;99.90;;;;;;5110698;28;20056;-69
2023/05/13 08:43:32;;;;;;;0.82;0.75;;;17.50;99.90;;;;;;5111361;28;19927;-68
2023/05/13 08:46:02;;;;;;;2.38;1.48;;;17.70;99.90;;;;;;5082621;28;20056;-70
2023/05/13 08:48:28;;;;;;;0.50;0.50;;;17.40;99.90;;;;;;5074590;28;20052;-66
2023/05/13 08:50:55;;;;;;;0.63;0.63;;;17.50;99.90;;;;;;5082009;28;20039;-70
2023/05/13 08:53:23;;;;;;;0.40;0.40;;;17.40;99.90;;;;;;5108045;28;20071;-68
2023/05/13 08:55:50;;;;;;;1.25;1.17;;;17.50;99.90;;;;;;5094134;28;20087;-68
2023/05/13 08:58:15;;;;;;;0.63;0.60;;;17.20;99.90;;;;;;5092740;28;20403;-69
2023/05/13 09:00:41;;;;;;;0.32;0.32;;;16.80;99.90;;;;;;5094806;28;20040;-70
2023/05/13 09:03:07;;;;;;;;;;;16.80;99.90;;;;;;5094431;28;20553;-69
2023/05/13 09:05:34;;;;;;;1.70;1.60;;;16.80;99.90;;;;;;5094473;28;19950;-70
2023/05/13 09:08:05;;;;;;;1.02;0.82;;;16.90;99.90;;;;;;5092769;28;20043;-67
2023/05/13 09:10:31;;;;;;;0.63;0.63;;;17.50;99.90;;;;;;5112930;28;20119;-70
2023/05/13 09:12:57;;;;;;;;;;;17.50;99.90;;;;;;5114966;28;20485;-68
2023/05/13 09:15:25;;;;;;;0.55;0.55;;;17.40;99.90;;;;;;5115442;28;20294;-71
2023/05/13 09:18:03;;;;;;;4.30;1.40;;;17.60;99.90;;;;;;5114814;28;20143;-71
2023/05/13 09:20:29;;;;;;;0.93;0.93;;;17.70;99.90;;;;;;5114914;28;20578;-72
2023/05/13 09:23:09;;;;;;;0.50;0.47;;;18.00;99.90;;;;;;5114706;27;20044;-69
2023/05/13 09:25:38;;;;;;;0.50;0.50;;;18.10;99.90;;;;;;5114325;28;20040;-69
2023/05/13 09:28:06;;;;;;;0.38;0.38;;;18.00;99.90;;;;;;5114645;28;20055;-71
2023/05/13 09:30:39;;;;;;;0.85;0.85;;;17.90;99.90;;;;;;5114910;28;20043;-70
2023/05/13 09:33:16;;;;;;;0.77;0.77;;;18.10;99.90;;;;;;5114187;28;20574;-69
2023/05/13 09:35:52;;;;;;;2.13;1.92;;;17.80;99.90;;;;;;5114154;27;20054;-73
2023/05/13 09:38:19;;;;;;;2.42;1.55;;;17.90;99.90;;;;;;5095777;28;20038;-71
2023/05/13 09:41:05;;;;;;;0.50;0.50;;;17.80;99.90;;;;;;5093586;28;20050;-72
2023/05/13 09:43:32;;;;;;;0.40;0.40;;;18.50;99.90;;;;;;5093279;28;20667;-73
2023/05/13 09:46:02;;;;;;;1.15;0.98;;;18.40;99.90;;;;;;5094080;28;20127;-72
2023/05/13 09:48:30;;;;;;;0.60;0.60;;;18.40;99.90;;;;;;5093572;28;20487;-72
2023/05/13 09:50:56;;;;;;;1.05;0.90;;;18.50;99.90;;;;;;5094331;28;20052;-78
2023/05/13 09:53:23;;;;;;;0.77;0.68;;;18.30;99.90;;;;;;5092949;28;20072;-76
2023/05/13 09:55:55;;;;;;;0.55;0.55;;;18.00;99.90;;;;;;5093578;28;20419;-76
2023/05/13 09:58:23;;;;;;;0.50;0.50;;;18.20;99.90;;;;;;5093000;28;20052;-78
2023/05/13 10:00:50;;;;;;;0.50;0.50;;;18.20;99.90;;;;;;5093823;28;20083;-75
2023/05/13 10:03:16;;;;;;;1.30;1.23;;;18.30;99.90;;;;;;5089797;28;20044;-71
2023/05/13 10:05:42;;;;;;;1.30;1.20;;;18.30;99.90;;;;;;5092956;28;20051;-73
2023/05/13 10:08:09;;;;;;;0.55;0.55;;;18.10;99.90;;;;;;5094017;28;20120;-72
2023/05/13 10:10:36;;;;;;;1.33;0.65;;;18.30;99.90;;;;;;5093908;28;20044;-80
2023/05/13 10:13:05;;;;;;;1.35;0.95;;;18.30;99.90;;;;;;5093884;28;20399;-75
2023/05/13 10:15:33;;;;;;;0.77;0.70;;;18.70;99.90;;;;;;5093743;28;20411;-72
2023/05/13 10:17:59;;;;;;;0.25;0.25;;;18.60;99.90;;;;;;5094027;28;20054;-73
2023/05/13 10:20:25;;;;;;;0.80;0.80;;;18.60;99.90;;;;;;5093935;28;20412;-75
2023/05/13 10:22:51;;;;;;;0.60;0.60;;;18.50;99.90;;;;;;5093863;28;20040;-72
2023/05/13 10:25:17;;;;;;;1.08;0.95;;;17.90;99.90;;;;;;5093471;28;20063;-72
2023/05/13 10:27:44;;;;;;;0.70;0.50;;;18.10;99.90;;;;;;5093665;28;20123;-72
2023/05/13 10:30:10;;;;;;;0.60;0.57;;;18.50;99.90;;;;;;5093476;28;20542;-78
2023/05/13 10:32:38;;;;;;;0.60;0.60;;;18.40;99.90;;;;;;5093641;28;20484;-78
2023/05/13 10:35:11;;;;;;;3.67;1.23;;;18.70;99.90;;;;;;5093732;28;20522;-75
2023/05/13 10:38:00;;;;;;;0.63;0.63;;;18.90;99.90;;;;;;5093702;28;20057;-74
2023/05/13 10:40:51;;;;;;;1.20;0.88;;;18.30;99.90;;;;;;5093512;28;20131;-74
2023/05/13 10:43:21;;;;;;;1.23;1.13;;;18.60;99.90;;;;;;5093665;28;20101;-79
2023/05/13 10:45:49;;;;;;;0.82;0.82;;;18.50;99.90;;;;;;5093396;28;20052;-74
2023/05/13 10:48:16;;;;;;;0.73;0.73;;;18.50;99.90;;;;;;5093341;28;20407;-72
2023/05/13 10:51:04;;;;;;;0.43;0.43;;;18.90;99.90;;;;;;5093279;28;20118;-74
2023/05/13 10:53:31;;;;;;;4.15;1.35;;;18.80;99.90;;;;;;5092782;28;20052;-75
2023/05/13 10:55:59;;;;;;;0.43;0.43;;;19.00;99.90;;;;;;5093246;28;20051;-78
2023/05/13 10:58:29;;;;;;;0.47;0.47;;;19.10;99.90;;;;;;5093000;28;20052;-72
2023/05/13 11:01:18;;;;;;;0.93;0.93;;;19.20;99.90;;;;;;5092860;28;20052;-74
2023/05/13 11:04:01;;;;;;;0.80;0.70;;;19.10;99.90;;;;;;5093116;28;20111;-78
2023/05/13 11:06:38;;;;;;;0.75;0.68;;;19.40;99.90;;;;;;5093133;28;20044;-74
2023/05/13 11:09:10;;;;;;;0.55;0.50;;;19.10;99.90;;;;;;5091926;28;20051;-72
2023/05/13 11:11:37;;;;;;;0.63;0.63;;;19.00;99.90;;;;;;5092933;28;20048;-71
2023/05/13 11:14:25;;;;;;;1.00;0.98;;;19.40;99.90;;;;;;5093071;28;20048;-72
2023/05/13 11:16:59;;;;;;;0.70;0.70;;;19.30;99.90;;;;;;5091826;28;20058;-75
2023/05/13 11:19:28;;;;;;;0.63;0.63;;;19.50;99.90;;;;;;5092689;28;20087;-72
2023/05/13 11:21:55;;;;;;;1.10;1.08;;;19.80;99.90;;;;;;5092314;28;20131;-78
2023/05/13 11:24:22;;;;;;;0.88;0.75;;;19.40;99.90;;;;;;5092373;28;20096;-78
2023/05/13 11:26:47;;;;;;;1.65;0.52;;;19.40;99.90;;;;;;5092807;28;20377;-72
2023/05/13 11:29:14;;;;;;;1.08;1.08;;;19.50;99.90;;;;;;5092488;28;20055;-72
2023/05/13 11:31:46;;;;;;;0.57;0.57;;;19.40;99.90;;;;;;5092599;28;20146;-75
2023/05/13 11:34:18;;;;;;;2.05;0.77;;;19.80;99.90;;;;;;5092204;28;20044;-74
2023/05/13 11:37:07;;;;;;;0.50;0.50;;;19.90;99.90;;;;;;5092230;28;20086;-77
2023/05/13 11:39:34;;;;;;;1.02;0.88;;;19.60;99.90;;;;;;5092535;28;20511;-71
2023/05/13 11:42:01;;;;;;;0.65;0.60;;;19.90;99.90;;;;;;5092220;28;20052;-71
2023/05/13 11:44:27;;;;;;;1.33;1.23;;;19.90;99.90;;;;;;5092084;28;20051;-72
2023/05/13 11:47:01;;;;;;;0.95;0.80;;;20.30;99.90;;;;;;5092268;28;20044;-70
2023/05/13 11:49:44;;;;;;;0.50;0.50;;;19.80;99.90;;;;;;5091989;28;20039;-70
2023/05/13 11:52:11;;;;;;;0.50;0.50;;;19.80;99.90;;;;;;5091888;28;20419;-70
2023/05/13 11:54:43;;;;;;;2.83;1.23;;;19.80;99.90;;;;;;5092223;28;20556;-72
2023/05/13 11:57:20;;;;;;;0.93;0.82;;;19.90;99.90;;;;;;5091952;28;20047;-71
2023/05/13 11:59:50;;;;;;;0.50;0.50;;;20.20;99.90;;;;;;5091886;28;20613;-71
2023/05/13 12:02:20;;;;;;;0.65;0.63;;;19.90;99.90;;;;;;5091943;28;20484;-72
2023/05/13 12:04:46;;;;;;;0.85;0.77;;;20.10;99.90;;;;;;5092017;28;20090;-71
2023/05/13 12:07:12;;;;;;;1.85;1.25;;;20.30;99.90;;;;;;5092105;28;20565;-76
2023/05/13 12:09:38;;;;;;;0.43;0.43;;;19.90;99.90;;;;;;5082633;28;20044;-71
2023/05/13 12:12:05;;;;;;;0.20;0.20;;;19.90;99.90;;;;;;5074702;28;20141;-72
2023/05/13 12:14:32;;;;;;;1.63;0.85;;;19.80;99.90;;;;;;5089888;28;20145;-67
2023/05/13 12:16:57;;;;;;;0.75;0.55;;;19.90;99.90;;;;;;5091108;28;20071;-70
2023/05/13 12:19:23;;;;;;;0.75;0.60;;;19.70;99.90;;;;;;5090326;28;20436;-70
2023/05/13 12:21:50;;;;;;;0.80;0.80;;;19.50;99.90;;;;;;5095505;28;20113;-70
2023/05/13 12:24:26;;;;;;;0.73;0.73;;;19.90;99.90;;;;;;5095826;28;20047;-70
2023/05/13 12:26:52;;;;;;;1.10;1.02;;;20.00;99.90;;;;;;5094330;28;20518;-70
2023/05/13 12:29:18;;;;;;;0.60;0.60;;;19.90;99.90;;;;;;5095129;28;20080;-72
2023/05/13 12:32:03;;;;;;;0.45;0.45;;;19.70;99.90;;;;;;5094965;28;20068;-70
2023/05/13 12:34:33;;;;;;;0.70;0.67;;;19.90;99.90;;;;;;5093641;28;20076;-72
2023/05/13 12:37:12;;;;;;;0.28;0.17;;;19.70;99.90;;;;;;5095509;28;20054;-80
2023/05/13 12:39:42;;;;;;;0.90;0.90;;;20.00;99.90;;;;;;5095411;28;20036;-71
2023/05/13 12:42:17;;;;;;;0.70;0.70;;;20.00;99.90;;;;;;5095811;28;20040;-70
2023/05/13 12:44:44;;;;;;;0.55;0.47;;;19.80;99.90;;;;;;5095152;28;20520;-70
2023/05/13 12:47:11;;;;;;;0.85;0.65;;;19.80;99.90;;;;;;5095207;28;20052;-71
2023/05/13 12:49:58;;;;;;;2.28;0.60;;;19.70;99.90;;;;;;5095524;28;20143;-74
2023/05/13 12:52:23;;;;;;;;;;;19.50;99.90;;;;;;5095524;28;20052;-71
2023/05/13 12:54:49;;;;;;;1.70;0.70;;;19.60;99.90;;;;;;5095484;28;19974;-71
2023/05/13 12:57:19;;;;;;;0.52;0.52;;;20.00;99.90;;;;;;5094417;28;20058;-72